sensor_id;sensor_type;location;lat;lon;timestamp;pressure;altitude;pressure_sealevel;temperature;humidity
34205;BME280;20471;49.680;20.074;2022-11-20T00:01:16;96831.85;;;-3.72;72.68
34205;BME280;20471;49.680;20.074;2022-11-20T00:03:46;96821.12;;;-3.75;72.62
34205;BME280;20471;49.680;20.074;2022-11-20T00:06:16;96820.20;;;-3.79;72.60
34205;BME280;20471;49.680;20.074;2022-11-20T00:08:44;96825.82;;;-3.78;72.73
34205;BME280;20471;49.680;20.074;2022-11-20T00:11:17;96828.03;;;-3.74;72.83
34205;BME280;20471;49.680;20.074;2022-11-20T00:13:46;96821.17;;;-3.71;72.83
34205;BME280;20471;49.680;20.074;2022-11-20T00:16:17;96825.61;;;-3.71;72.79
34205;BME280;20471;49.680;20.074;2022-11-20T00:18:45;96826.66;;;-3.68;72.87
34205;BME280;20471;49.680;20.074;2022-11-20T00:21:15;96819.18;;;-3.63;72.93
34205;BME280;20471;49.680;20.074;2022-11-20T00:23:44;96814.44;;;-3.59;72.89
34205;BME280;20471;49.680;20.074;2022-11-20T00:26:13;96815.00;;;-3.56;72.84
34205;BME280;20471;49.680;20.074;2022-11-20T00:28:42;96810.78;;;-3.53;72.86
34205;BME280;20471;49.680;20.074;2022-11-20T00:31:13;96809.86;;;-3.48;72.92
34205;BME280;20471;49.680;20.074;2022-11-20T00:33:42;96816.80;;;-3.47;72.99
34205;BME280;20471;49.680;20.074;2022-11-20T00:36:12;96821.81;;;-3.44;72.98
34205;BME280;20471;49.680;20.074;2022-11-20T00:38:41;96808.70;;;-3.40;73.01
34205;BME280;20471;49.680;20.074;2022-11-20T00:41:10;96806.23;;;-3.37;72.99
34205;BME280;20471;49.680;20.074;2022-11-20T00:43:39;96808.39;;;-3.37;73.00
34205;BME280;20471;49.680;20.074;2022-11-20T00:46:08;96802.28;;;-3.37;72.92
34205;BME280;20471;49.680;20.074;2022-11-20T00:48:36;96805.27;;;-3.36;72.93
34205;BME280;20471;49.680;20.074;2022-11-20T00:51:03;96817.01;;;-3.35;72.95
34205;BME280;20471;49.680;20.074;2022-11-20T00:53:29;96816.04;;;-3.34;72.99
34205;BME280;20471;49.680;20.074;2022-11-20T00:56:02;96821.05;;;-3.31;72.92
34205;BME280;20471;49.680;20.074;2022-11-20T00:58:33;96806.26;;;-3.28;72.91
34205;BME280;20471;49.680;20.074;2022-11-20T01:06:12;96811.23;;;-3.24;73.07
34205;BME280;20471;49.680;20.074;2022-11-20T01:08:41;96814.22;;;-3.23;73.09
34205;BME280;20471;49.680;20.074;2022-11-20T01:11:14;96812.41;;;-3.23;73.09
34205;BME280;20471;49.680;20.074;2022-11-20T01:13:44;96810.83;;;-3.20;73.11
34205;BME280;20471;49.680;20.074;2022-11-20T01:16:20;96808.80;;;-3.22;73.11
34205;BME280;20471;49.680;20.074;2022-11-20T01:18:53;96806.03;;;-3.20;73.12
34205;BME280;20471;49.680;20.074;2022-11-20T01:21:24;96806.10;;;-3.16;73.28
34205;BME280;20471;49.680;20.074;2022-11-20T01:23:56;96808.78;;;-3.12;73.35
34205;BME280;20471;49.680;20.074;2022-11-20T01:26:26;96809.70;;;-3.08;73.39
34205;BME280;20471;49.680;20.074;2022-11-20T01:28:55;96801.64;;;-3.06;73.35
34205;BME280;20471;49.680;20.074;2022-11-20T01:34:00;96781.34;;;-3.06;73.24
34205;BME280;20471;49.680;20.074;2022-11-20T01:36:30;96779.55;;;-3.05;73.24
34205;BME280;20471;49.680;20.074;2022-11-20T01:39:01;96766.06;;;-3.12;73.20
34205;BME280;20471;49.680;20.074;2022-11-20T01:41:31;96776.63;;;-3.02;73.16
34205;BME280;20471;49.680;20.074;2022-11-20T01:44:20;96780.59;;;-3.02;73.14
34205;BME280;20471;49.680;20.074;2022-11-20T01:46:57;96785.34;;;-3.02;73.17
34205;BME280;20471;49.680;20.074;2022-11-20T01:49:39;96787.71;;;-2.99;73.24
34205;BME280;20471;49.680;20.074;2022-11-20T01:54:47;96783.54;;;-2.92;73.24
34205;BME280;20471;49.680;20.074;2022-11-20T01:57:15;96789.21;;;-2.86;73.22
34205;BME280;20471;49.680;20.074;2022-11-20T01:59:49;96786.64;;;-2.82;73.32
34205;BME280;20471;49.680;20.074;2022-11-20T02:02:21;96783.23;;;-2.79;73.33
34205;BME280;20471;49.680;20.074;2022-11-20T02:04:49;96783.75;;;-2.75;73.35
34205;BME280;20471;49.680;20.074;2022-11-20T02:07:18;96782.29;;;-2.74;73.30
34205;BME280;20471;49.680;20.074;2022-11-20T02:09:46;96789.24;;;-2.73;73.20
34205;BME280;20471;49.680;20.074;2022-11-20T02:12:13;96774.33;;;-2.78;73.26
34205;BME280;20471;49.680;20.074;2022-11-20T02:14:41;96771.69;;;-2.78;73.39
34205;BME280;20471;49.680;20.074;2022-11-20T02:17:08;96774.33;;;-2.78;73.35
34205;BME280;20471;49.680;20.074;2022-11-20T02:19:34;96779.61;;;-2.78;73.39
34205;BME280;20471;49.680;20.074;2022-11-20T02:24:46;96786.53;;;-2.77;73.45
34205;BME280;20471;49.680;20.074;2022-11-20T02:27:15;96776.91;;;-2.82;73.46
34205;BME280;20471;49.680;20.074;2022-11-20T02:29:48;96777.59;;;-2.80;73.48
34205;BME280;20471;49.680;20.074;2022-11-20T02:32:19;96773.98;;;-2.79;73.49
34205;BME280;20471;49.680;20.074;2022-11-20T02:34:47;96761.61;;;-2.78;73.56
34205;BME280;20471;49.680;20.074;2022-11-20T02:37:14;96768.39;;;-2.76;73.62
34205;BME280;20471;49.680;20.074;2022-11-20T02:39:42;96764.91;;;-2.76;73.69
34205;BME280;20471;49.680;20.074;2022-11-20T02:42:10;96765.40;;;-2.77;73.70
34205;BME280;20471;49.680;20.074;2022-11-20T02:44:37;96769.70;;;-2.76;73.78
34205;BME280;20471;49.680;20.074;2022-11-20T02:47:03;96768.59;;;-2.73;73.78
34205;BME280;20471;49.680;20.074;2022-11-20T02:49:30;96760.18;;;-2.73;73.74
34205;BME280;20471;49.680;20.074;2022-11-20T02:51:57;96760.18;;;-2.73;73.71
34205;BME280;20471;49.680;20.074;2022-11-20T02:54:24;96758.17;;;-2.75;73.71
34205;BME280;20471;49.680;20.074;2022-11-20T02:56:52;96767.06;;;-2.76;73.69
34205;BME280;20471;49.680;20.074;2022-11-20T02:59:18;96759.48;;;-2.75;73.70
34205;BME280;20471;49.680;20.074;2022-11-20T03:01:45;96764.56;;;-2.77;73.61
34205;BME280;20471;49.680;20.074;2022-11-20T03:04:12;96755.14;;;-2.80;73.66
34205;BME280;20471;49.680;20.074;2022-11-20T03:06:38;96753.13;;;-2.82;73.68
34205;BME280;20471;49.680;20.074;2022-11-20T03:09:05;96748.06;;;-2.89;73.61
34205;BME280;20471;49.680;20.074;2022-11-20T03:11:31;96751.02;;;-2.92;73.65
34205;BME280;20471;49.680;20.074;2022-11-20T03:16:32;96746.64;;;-2.97;73.61
34205;BME280;20471;49.680;20.074;2022-11-20T03:18:59;96756.65;;;-3.01;73.67
34205;BME280;20471;49.680;20.074;2022-11-20T03:21:26;96758.77;;;-3.04;73.70
34205;BME280;20471;49.680;20.074;2022-11-20T03:23:53;96754.45;;;-3.05;73.82
34205;BME280;20471;49.680;20.074;2022-11-20T03:26:23;96754.80;;;-3.04;73.86
34205;BME280;20471;49.680;20.074;2022-11-20T03:28:53;96748.83;;;-3.06;73.86
34205;BME280;20471;49.680;20.074;2022-11-20T03:31:24;96750.50;;;-3.05;73.96
34205;BME280;20471;49.680;20.074;2022-11-20T03:33:53;96748.20;;;-3.04;74.02
34205;BME280;20471;49.680;20.074;2022-11-20T03:36:20;96746.89;;;-3.04;74.02
34205;BME280;20471;49.680;20.074;2022-11-20T03:38:48;96744.59;;;-3.03;74.09
34205;BME280;20471;49.680;20.074;2022-11-20T03:41:21;96742.82;;;-2.99;74.11
34205;BME280;20471;49.680;20.074;2022-11-20T03:43:57;96743.09;;;-3.02;74.05
34205;BME280;20471;49.680;20.074;2022-11-20T03:46:26;96741.60;;;-3.04;74.06
34205;BME280;20471;49.680;20.074;2022-11-20T03:48:53;96739.59;;;-3.06;74.12
34205;BME280;20471;49.680;20.074;2022-11-20T03:51:28;96732.36;;;-3.04;74.25
34205;BME280;20471;49.680;20.074;2022-11-20T03:53:58;96736.02;;;-3.01;74.25
34205;BME280;20471;49.680;20.074;2022-11-20T03:56:27;96735.73;;;-2.98;74.34
34205;BME280;20471;49.680;20.074;2022-11-20T03:58:56;96732.47;;;-2.96;74.30
34205;BME280;20471;49.680;20.074;2022-11-20T04:01:26;96736.70;;;-2.99;74.29
34205;BME280;20471;49.680;20.074;2022-11-20T04:03:56;96733.09;;;-2.98;74.29
34205;BME280;20471;49.680;20.074;2022-11-20T04:06:33;96737.40;;;-2.97;74.38
34205;BME280;20471;49.680;20.074;2022-11-20T04:09:03;96740.45;;;-2.92;74.45
34205;BME280;20471;49.680;20.074;2022-11-20T04:14:03;96735.41;;;-2.85;74.38
34205;BME280;20471;49.680;20.074;2022-11-20T04:16:32;96726.72;;;-2.82;74.36
34205;BME280;20471;49.680;20.074;2022-11-20T04:19:03;96734.50;;;-2.80;74.32
34205;BME280;20471;49.680;20.074;2022-11-20T04:21:30;96728.10;;;-2.78;74.26
34205;BME280;20471;49.680;20.074;2022-11-20T04:23:57;96729.91;;;-2.78;74.25
34205;BME280;20471;49.680;20.074;2022-11-20T04:26:26;96738.95;;;-2.81;74.31
34205;BME280;20471;49.680;20.074;2022-11-20T04:28:54;96737.14;;;-2.80;74.31
34205;BME280;20471;49.680;20.074;2022-11-20T04:31:23;96728.73;;;-2.80;74.33
34205;BME280;20471;49.680;20.074;2022-11-20T04:33:52;96736.59;;;-2.84;74.27
34205;BME280;20471;49.680;20.074;2022-11-20T04:36:24;96736.25;;;-2.85;74.34
34205;BME280;20471;49.680;20.074;2022-11-20T04:38:56;96734.58;;;-2.86;74.45
34205;BME280;20471;49.680;20.074;2022-11-20T04:41:27;96737.22;;;-2.86;74.51
34205;BME280;20471;49.680;20.074;2022-11-20T04:43:57;96736.88;;;-2.87;74.53
34205;BME280;20471;49.680;20.074;2022-11-20T04:46:27;96727.48;;;-2.85;74.66
34205;BME280;20471;49.680;20.074;2022-11-20T04:48:55;96730.69;;;-2.82;74.68
34205;BME280;20471;49.680;20.074;2022-11-20T04:51:22;96734.36;;;-2.79;74.67
34205;BME280;20471;49.680;20.074;2022-11-20T04:53:49;96734.53;;;-2.76;74.70
34205;BME280;20471;49.680;20.074;2022-11-20T04:56:16;96735.92;;;-2.72;74.66
34205;BME280;20471;49.680;20.074;2022-11-20T04:58:43;96738.07;;;-2.72;74.66
34205;BME280;20471;49.680;20.074;2022-11-20T05:01:13;96735.29;;;-2.70;74.64
34205;BME280;20471;49.680;20.074;2022-11-20T05:03:42;96733.83;;;-2.69;74.60
34205;BME280;20471;49.680;20.074;2022-11-20T05:06:11;96736.13;;;-2.70;74.58
34205;BME280;20471;49.680;20.074;2022-11-20T05:08:39;96731.67;;;-2.69;74.56
34205;BME280;20471;49.680;20.074;2022-11-20T05:11:08;96728.06;;;-2.68;74.58
34205;BME280;20471;49.680;20.074;2022-11-20T05:13:37;96729.58;;;-2.66;74.58
34205;BME280;20471;49.680;20.074;2022-11-20T05:16:10;96727.59;;;-2.64;74.59
34205;BME280;20471;49.680;20.074;2022-11-20T05:18:38;96718.01;;;-2.65;74.63
34205;BME280;20471;49.680;20.074;2022-11-20T05:21:07;96710.56;;;-2.65;74.71
34205;BME280;20471;49.680;20.074;2022-11-20T05:23:35;96708.13;;;-2.63;74.67
34205;BME280;20471;49.680;20.074;2022-11-20T05:26:02;96703.19;;;-2.62;74.71
34205;BME280;20471;49.680;20.074;2022-11-20T05:28:30;96696.93;;;-2.61;74.70
34205;BME280;20471;49.680;20.074;2022-11-20T05:31:08;96691.02;;;-2.59;74.71
34205;BME280;20471;49.680;20.074;2022-11-20T05:33:40;96694.98;;;-2.59;74.74
34205;BME280;20471;49.680;20.074;2022-11-20T05:36:09;96698.59;;;-2.60;74.75
34205;BME280;20471;49.680;20.074;2022-11-20T05:38:36;96695.27;;;-2.62;74.75
34205;BME280;20471;49.680;20.074;2022-11-20T05:41:06;96688.31;;;-2.63;74.78
34205;BME280;20471;49.680;20.074;2022-11-20T05:43:34;96696.44;;;-2.60;74.80
34205;BME280;20471;49.680;20.074;2022-11-20T05:46:02;96694.98;;;-2.59;74.81
34205;BME280;20471;49.680;20.074;2022-11-20T05:48:30;96697.67;;;-2.55;74.88
34205;BME280;20471;49.680;20.074;2022-11-20T05:50:58;96706.61;;;-2.51;74.89
34205;BME280;20471;49.680;20.074;2022-11-20T05:53:26;96698.53;;;-2.50;74.89
34205;BME280;20471;49.680;20.074;2022-11-20T05:58:37;96702.98;;;-2.50;74.90
34205;BME280;20471;49.680;20.074;2022-11-20T06:03:48;96696.67;;;-2.54;74.79
34205;BME280;20471;49.680;20.074;2022-11-20T06:06:17;96696.23;;;-2.63;74.83
34205;BME280;20471;49.680;20.074;2022-11-20T06:08:45;96682.66;;;-2.68;74.92
34205;BME280;20471;49.680;20.074;2022-11-20T06:11:13;96678.86;;;-2.65;75.00
34205;BME280;20471;49.680;20.074;2022-11-20T06:13:42;96671.77;;;-2.65;74.98
34205;BME280;20471;49.680;20.074;2022-11-20T06:16:10;96673.58;;;-2.65;75.01
34205;BME280;20471;49.680;20.074;2022-11-20T06:18:37;96670.13;;;-2.66;75.02
34205;BME280;20471;49.680;20.074;2022-11-20T06:21:10;96665.52;;;-2.64;75.00
34205;BME280;20471;49.680;20.074;2022-11-20T06:23:38;96667.81;;;-2.65;75.01
34205;BME280;20471;49.680;20.074;2022-11-20T06:26:08;96671.11;;;-2.67;75.02
34205;BME280;20471;49.680;20.074;2022-11-20T06:28:39;96673.06;;;-2.69;75.08
34205;BME280;20471;49.680;20.074;2022-11-20T06:31:07;96671.77;;;-2.65;75.13
34205;BME280;20471;49.680;20.074;2022-11-20T06:33:35;96674.12;;;-2.62;75.16
34205;BME280;20471;49.680;20.074;2022-11-20T06:36:03;96669.19;;;-2.61;75.21
34205;BME280;20471;49.680;20.074;2022-11-20T06:38:30;96662.92;;;-2.60;75.20
34205;BME280;20471;49.680;20.074;2022-11-20T06:40:57;96668.70;;;-2.60;75.20
34205;BME280;20471;49.680;20.074;2022-11-20T06:43:24;96670.02;;;-2.60;75.19
34205;BME280;20471;49.680;20.074;2022-11-20T06:45:52;96664.59;;;-2.59;75.22
34205;BME280;20471;49.680;20.074;2022-11-20T06:48:20;96666.59;;;-2.57;75.20
34205;BME280;20471;49.680;20.074;2022-11-20T06:50:47;96666.11;;;-2.56;75.22
34205;BME280;20471;49.680;20.074;2022-11-20T06:53:13;96666.45;;;-2.55;75.23
34205;BME280;20471;49.680;20.074;2022-11-20T06:55:44;96667.59;;;-2.54;75.26
34205;BME280;20471;49.680;20.074;2022-11-20T06:58:12;96660.22;;;-2.50;75.46
34205;BME280;20471;49.680;20.074;2022-11-20T07:00:40;96663.06;;;-2.47;75.38
34205;BME280;20471;49.680;20.074;2022-11-20T07:03:08;96660.56;;;-2.49;75.46
34205;BME280;20471;49.680;20.074;2022-11-20T07:05:37;96656.89;;;-2.52;75.48
34205;BME280;20471;49.680;20.074;2022-11-20T07:08:04;96669.93;;;-2.55;75.52
34205;BME280;20471;49.680;20.074;2022-11-20T07:10:31;96675.22;;;-2.55;75.63
34205;BME280;20471;49.680;20.074;2022-11-20T07:12:58;96665.30;;;-2.52;75.65
34205;BME280;20471;49.680;20.074;2022-11-20T07:15:25;96673.28;;;-2.48;75.73
34205;BME280;20471;49.680;20.074;2022-11-20T07:17:52;96675.66;;;-2.41;75.78
34205;BME280;20471;49.680;20.074;2022-11-20T07:20:18;96669.74;;;-2.39;75.73
34205;BME280;20471;49.680;20.074;2022-11-20T07:22:45;96668.42;;;-2.39;75.74
34205;BME280;20471;49.680;20.074;2022-11-20T07:25:11;96678.99;;;-2.39;75.79
34205;BME280;20471;49.680;20.074;2022-11-20T07:27:38;96685.31;;;-2.36;75.82
34205;BME280;20471;49.680;20.074;2022-11-20T07:30:06;96686.63;;;-2.36;75.75
34205;BME280;20471;49.680;20.074;2022-11-20T07:32:33;96685.86;;;-2.33;75.76
34205;BME280;20471;49.680;20.074;2022-11-20T07:34:59;96684.06;;;-2.28;75.72
34205;BME280;20471;49.680;20.074;2022-11-20T07:37:26;96688.42;;;-2.23;75.71
34205;BME280;20471;49.680;20.074;2022-11-20T07:39:52;96695.09;;;-2.19;75.71
34205;BME280;20471;49.680;20.074;2022-11-20T07:42:19;96692.95;;;-2.15;75.73
34205;BME280;20471;49.680;20.074;2022-11-20T07:44:46;96685.91;;;-2.11;75.80
34205;BME280;20471;49.680;20.074;2022-11-20T07:47:12;96686.61;;;-2.05;75.71
34205;BME280;20471;49.680;20.074;2022-11-20T07:49:39;96687.64;;;-2.02;75.62
34205;BME280;20471;49.680;20.074;2022-11-20T07:52:05;96681.08;;;-1.98;75.63
34205;BME280;20471;49.680;20.074;2022-11-20T07:54:32;96684.08;;;-1.93;75.62
34205;BME280;20471;49.680;20.074;2022-11-20T07:56:59;96677.70;;;-1.86;75.62
34205;BME280;20471;49.680;20.074;2022-11-20T07:59:25;96674.62;;;-1.82;75.60
34205;BME280;20471;49.680;20.074;2022-11-20T08:01:52;96676.30;;;-1.76;75.68
34205;BME280;20471;49.680;20.074;2022-11-20T08:04:19;96675.36;;;-1.71;75.66
34205;BME280;20471;49.680;20.074;2022-11-20T08:06:45;96681.00;;;-1.66;75.64
34205;BME280;20471;49.680;20.074;2022-11-20T08:09:12;96675.45;;;-1.59;75.72
34205;BME280;20471;49.680;20.074;2022-11-20T08:11:38;96667.38;;;-1.54;75.69
34205;BME280;20471;49.680;20.074;2022-11-20T08:14:24;96674.22;;;-1.47;75.66
34205;BME280;20471;49.680;20.074;2022-11-20T08:16:50;96679.13;;;-1.52;75.57
34205;BME280;20471;49.680;20.074;2022-11-20T08:19:18;96685.56;;;-1.55;75.69
34205;BME280;20471;49.680;20.074;2022-11-20T08:21:45;96680.41;;;-1.56;75.81
34205;BME280;20471;49.680;20.074;2022-11-20T08:24:11;96682.41;;;-1.58;75.83
34205;BME280;20471;49.680;20.074;2022-11-20T08:26:39;96682.91;;;-1.55;75.79
34205;BME280;20471;49.680;20.074;2022-11-20T08:29:06;96681.14;;;-1.50;75.83
34205;BME280;20471;49.680;20.074;2022-11-20T08:31:33;96669.28;;;-1.42;75.88
34205;BME280;20471;49.680;20.074;2022-11-20T08:34:02;96665.65;;;-1.41;75.76
34205;BME280;20471;49.680;20.074;2022-11-20T08:36:28;96659.22;;;-1.38;75.77
34205;BME280;20471;49.680;20.074;2022-11-20T08:38:58;96663.08;;;-1.33;75.84
34205;BME280;20471;49.680;20.074;2022-11-20T08:41:25;96661.94;;;-1.26;75.88
34205;BME280;20471;49.680;20.074;2022-11-20T08:43:56;96654.87;;;-1.22;75.82
34205;BME280;20471;49.680;20.074;2022-11-20T08:46:28;96660.50;;;-1.17;75.77
34205;BME280;20471;49.680;20.074;2022-11-20T08:49:01;96654.44;;;-1.09;75.78
34205;BME280;20471;49.680;20.074;2022-11-20T08:51:28;96655.16;;;-0.99;75.77
34205;BME280;20471;49.680;20.074;2022-11-20T08:53:55;96651.73;;;-0.87;75.72
34205;BME280;20471;49.680;20.074;2022-11-20T08:56:21;96650.27;;;-0.78;75.56
34205;BME280;20471;49.680;20.074;2022-11-20T08:58:49;96645.16;;;-0.71;75.44
34205;BME280;20471;49.680;20.074;2022-11-20T09:01:19;96647.83;;;-0.67;75.38
34205;BME280;20471;49.680;20.074;2022-11-20T09:03:46;96647.70;;;-0.61;75.27
34205;BME280;20471;49.680;20.074;2022-11-20T09:06:13;96651.52;;;-0.56;75.25
34205;BME280;20471;49.680;20.074;2022-11-20T09:08:40;96645.56;;;-0.54;75.14
34205;BME280;20471;49.680;20.074;2022-11-20T09:11:07;96651.53;;;-0.52;75.23
34205;BME280;20471;49.680;20.074;2022-11-20T09:13:35;96648.88;;;-0.48;75.20
34205;BME280;20471;49.680;20.074;2022-11-20T09:16:05;96652.20;;;-0.46;75.10
34205;BME280;20471;49.680;20.074;2022-11-20T09:18:33;96642.77;;;-0.44;75.07
34205;BME280;20471;49.680;20.074;2022-11-20T09:21:06;96643.44;;;-0.42;74.94
34205;BME280;20471;49.680;20.074;2022-11-20T09:23:38;96636.33;;;-0.38;74.99
34205;BME280;20471;49.680;20.074;2022-11-20T09:26:06;96627.39;;;-0.37;74.84
34205;BME280;20471;49.680;20.074;2022-11-20T09:28:35;96621.58;;;-0.32;74.96
34205;BME280;20471;49.680;20.074;2022-11-20T09:31:07;96622.92;;;-0.28;74.97
34205;BME280;20471;49.680;20.074;2022-11-20T09:33:35;96622.92;;;-0.20;74.96
34205;BME280;20471;49.680;20.074;2022-11-20T09:36:02;96623.12;;;-0.13;74.87
34205;BME280;20471;49.680;20.074;2022-11-20T09:38:29;96623.12;;;-0.05;74.73
34205;BME280;20471;49.680;20.074;2022-11-20T09:40:58;96626.62;;;-0.01;74.61
34205;BME280;20471;49.680;20.074;2022-11-20T09:49:23;96623.44;;;0.12;74.17
34205;BME280;20471;49.680;20.074;2022-11-20T09:52:01;96630.43;;;0.09;74.21
34205;BME280;20471;49.680;20.074;2022-11-20T09:54:37;96634.05;;;0.12;74.21
34205;BME280;20471;49.680;20.074;2022-11-20T09:57:14;96633.25;;;0.20;74.16
34205;BME280;20471;49.680;20.074;2022-11-20T09:59:46;96631.73;;;0.25;73.97
34205;BME280;20471;49.680;20.074;2022-11-20T10:19:51;96648.02;;;0.47;73.92
34205;BME280;20471;49.680;20.074;2022-11-20T10:22:48;96644.01;;;0.51;73.92
34205;BME280;20471;49.680;20.074;2022-11-20T10:25:20;96640.04;;;0.59;73.85
34205;BME280;20471;49.680;20.074;2022-11-20T10:30:34;96630.38;;;0.62;73.52
34205;BME280;20471;49.680;20.074;2022-11-20T10:33:09;96632.21;;;0.65;73.48
34205;BME280;20471;49.680;20.074;2022-11-20T10:38:18;96629.87;;;0.79;73.40
34205;BME280;20471;49.680;20.074;2022-11-20T10:40:57;96627.05;;;0.84;73.26
34205;BME280;20471;49.680;20.074;2022-11-20T10:43:32;96627.68;;;0.86;73.12
34205;BME280;20471;49.680;20.074;2022-11-20T10:46:06;96628.84;;;0.92;73.18
34205;BME280;20471;49.680;20.074;2022-11-20T10:48:38;96633.95;;;0.97;73.08
34205;BME280;20471;49.680;20.074;2022-11-20T10:54:22;96626.64;;;1.07;72.85
34205;BME280;20471;49.680;20.074;2022-11-20T11:02:42;96616.97;;;1.19;72.57
34205;BME280;20471;49.680;20.074;2022-11-20T11:05:27;96618.76;;;1.22;72.44
34205;BME280;20471;49.680;20.074;2022-11-20T11:08:05;96616.09;;;1.26;72.38
34205;BME280;20471;49.680;20.074;2022-11-20T11:10:42;96616.59;;;1.30;72.40
34205;BME280;20471;49.680;20.074;2022-11-20T11:13:21;96610.60;;;1.32;72.39
34205;BME280;20471;49.680;20.074;2022-11-20T11:15:50;96612.23;;;1.33;72.42
34205;BME280;20471;49.680;20.074;2022-11-20T11:18:28;96600.98;;;1.23;72.21
34205;BME280;20471;49.680;20.074;2022-11-20T11:20:57;96593.05;;;1.15;72.12
34205;BME280;20471;49.680;20.074;2022-11-20T11:23:41;96590.73;;;1.12;72.19
34205;BME280;20471;49.680;20.074;2022-11-20T11:26:20;96585.08;;;1.15;72.42
34205;BME280;20471;49.680;20.074;2022-11-20T11:28:59;96584.90;;;1.20;72.54
34205;BME280;20471;49.680;20.074;2022-11-20T11:31:30;96575.88;;;1.25;72.43
34205;BME280;20471;49.680;20.074;2022-11-20T11:34:12;96578.37;;;1.31;72.35
34205;BME280;20471;49.680;20.074;2022-11-20T11:36:40;96561.53;;;1.38;72.31
34205;BME280;20471;49.680;20.074;2022-11-20T11:39:14;96556.20;;;1.42;72.21
34205;BME280;20471;49.680;20.074;2022-11-20T11:41:40;96557.31;;;1.48;72.51
34205;BME280;20471;49.680;20.074;2022-11-20T11:44:33;96559.62;;;1.51;72.27
34205;BME280;20471;49.680;20.074;2022-11-20T11:47:29;96552.30;;;1.53;72.14
34205;BME280;20471;49.680;20.074;2022-11-20T11:50:26;96556.78;;;1.57;72.16
34205;BME280;20471;49.680;20.074;2022-11-20T11:56:05;96550.41;;;1.62;71.94
34205;BME280;20471;49.680;20.074;2022-11-20T12:01:38;96554.84;;;1.69;71.68
34205;BME280;20471;49.680;20.074;2022-11-20T12:04:19;96544.25;;;1.65;71.56
34205;BME280;20471;49.680;20.074;2022-11-20T12:06:53;96543.61;;;1.59;71.52
34205;BME280;20471;49.680;20.074;2022-11-20T12:09:28;96546.58;;;1.64;71.66
34205;BME280;20471;49.680;20.074;2022-11-20T12:12:05;96540.53;;;1.70;71.67
34205;BME280;20471;49.680;20.074;2022-11-20T12:14:38;96549.83;;;1.74;71.72
34205;BME280;20471;49.680;20.074;2022-11-20T12:17:12;96546.82;;;1.77;71.80
34205;BME280;20471;49.680;20.074;2022-11-20T12:19:40;96552.42;;;1.83;71.80
34205;BME280;20471;49.680;20.074;2022-11-20T12:25:08;96558.36;;;1.93;71.45
34205;BME280;20471;49.680;20.074;2022-11-20T12:27:58;96557.03;;;1.93;71.39
34205;BME280;20471;49.680;20.074;2022-11-20T12:36:49;96551.95;;;2.02;71.69
34205;BME280;20471;49.680;20.074;2022-11-20T12:39:33;96544.72;;;2.10;71.65
34205;BME280;20471;49.680;20.074;2022-11-20T12:51:51;96540.36;;;2.32;71.67
34205;BME280;20471;49.680;20.074;2022-11-20T12:54:45;96539.68;;;2.34;71.44
34205;BME280;20471;49.680;20.074;2022-11-20T12:57:28;96527.34;;;2.37;71.46
34205;BME280;20471;49.680;20.074;2022-11-20T13:08:54;96527.98;;;2.54;71.53
34205;BME280;20471;49.680;20.074;2022-11-20T13:11:37;96532.13;;;2.57;71.54
34205;BME280;20471;49.680;20.074;2022-11-20T13:20:16;96509.59;;;2.63;71.76
34205;BME280;20471;49.680;20.074;2022-11-20T13:22:46;96499.30;;;2.75;71.74
34205;BME280;20471;49.680;20.074;2022-11-20T13:30:51;96510.53;;;2.81;71.42
34205;BME280;20471;49.680;20.074;2022-11-20T13:33:28;96506.31;;;2.86;71.41
34205;BME280;20471;49.680;20.074;2022-11-20T13:36:06;96507.08;;;2.91;71.42
34205;BME280;20471;49.680;20.074;2022-11-20T13:38:46;96490.86;;;2.97;71.32
34205;BME280;20471;49.680;20.074;2022-11-20T13:41:35;96493.34;;;2.98;71.04
34205;BME280;20471;49.680;20.074;2022-11-20T13:46:51;96482.03;;;2.96;70.98
34205;BME280;20471;49.680;20.074;2022-11-20T14:01:15;96452.98;;;3.01;70.67
34205;BME280;20471;49.680;20.074;2022-11-20T14:03:52;96462.08;;;2.92;70.67
34205;BME280;20471;49.680;20.074;2022-11-20T14:08:58;96478.84;;;2.71;70.80
34205;BME280;20471;49.680;20.074;2022-11-20T14:11:27;96487.87;;;2.66;70.81
34205;BME280;20471;49.680;20.074;2022-11-20T14:16:32;96491.80;;;2.60;71.13
34205;BME280;20471;49.680;20.074;2022-11-20T14:22:07;96481.46;;;2.46;71.21
34205;BME280;20471;49.680;20.074;2022-11-20T14:24:43;96484.98;;;2.42;71.25
34205;BME280;20471;49.680;20.074;2022-11-20T14:27:12;96482.77;;;2.31;71.23
34205;BME280;20471;49.680;20.074;2022-11-20T14:29:40;96497.02;;;2.24;71.29
34205;BME280;20471;49.680;20.074;2022-11-20T14:32:09;96488.78;;;2.14;71.22
34205;BME280;20471;49.680;20.074;2022-11-20T14:34:39;96488.99;;;2.09;71.29
34205;BME280;20471;49.680;20.074;2022-11-20T14:37:12;96478.08;;;2.04;71.37
34205;BME280;20471;49.680;20.074;2022-11-20T14:39:47;96475.77;;;2.01;71.40
34205;BME280;20471;49.680;20.074;2022-11-20T14:42:21;96474.14;;;1.96;71.45
34205;BME280;20471;49.680;20.074;2022-11-20T14:44:50;96473.70;;;1.92;71.45
34205;BME280;20471;49.680;20.074;2022-11-20T14:47:21;96465.91;;;1.87;71.43
34205;BME280;20471;49.680;20.074;2022-11-20T14:49:49;96470.31;;;1.79;71.50
34205;BME280;20471;49.680;20.074;2022-11-20T14:52:19;96473.32;;;1.76;71.66
34205;BME280;20471;49.680;20.074;2022-11-20T14:54:52;96470.36;;;1.71;71.71
34205;BME280;20471;49.680;20.074;2022-11-20T15:02:45;96478.85;;;1.48;71.78
34205;BME280;20471;49.680;20.074;2022-11-20T15:05:14;96467.78;;;1.40;71.89
34205;BME280;20471;49.680;20.074;2022-11-20T15:07:44;96465.98;;;1.33;72.04
34205;BME280;20471;49.680;20.074;2022-11-20T15:10:21;96479.66;;;1.30;72.19
34205;BME280;20471;49.680;20.074;2022-11-20T15:12:54;96482.16;;;1.27;72.18
34205;BME280;20471;49.680;20.074;2022-11-20T15:15:32;96478.73;;;1.19;72.16
34205;BME280;20471;49.680;20.074;2022-11-20T15:18:02;96477.98;;;1.06;72.25
34205;BME280;20471;49.680;20.074;2022-11-20T15:20:32;96472.84;;;1.00;72.60
34205;BME280;20471;49.680;20.074;2022-11-20T15:22:59;96479.63;;;1.07;72.96
34205;BME280;20471;49.680;20.074;2022-11-20T15:25:26;96481.58;;;1.13;72.93